sensor_id;sensor_type;location;lat;lon;timestamp;temperature;humidity
25582;DHT22;13462;50.764;4.332;2022-09-09T00:02:13;14.90;99.90
25582;DHT22;13462;50.764;4.332;2022-09-09T00:04:49;14.80;99.90
25582;DHT22;13462;50.764;4.332;2022-09-09T00:07:39;14.80;99.90
25582;DHT22;13462;50.764;4.332;2022-09-09T00:13:13;14.80;99.90
25582;DHT22;13462;50.764;4.332;2022-09-09T00:15:55;14.70;99.90
25582;DHT22;13462;50.764;4.332;2022-09-09T00:21:18;14.80;99.90
25582;DHT22;13462;50.764;4.332;2022-09-09T00:23:56;14.70;99.90
25582;DHT22;13462;50.764;4.332;2022-09-09T00:26:30;14.80;99.90
25582;DHT22;13462;50.764;4.332;2022-09-09T00:29:19;14.80;99.90
25582;DHT22;13462;50.764;4.332;2022-09-09T00:31:47;14.80;99.90
25582;DHT22;13462;50.764;4.332;2022-09-09T00:34:33;14.80;99.90
25582;DHT22;13462;50.764;4.332;2022-09-09T00:37:10;14.90;99.90
25582;DHT22;13462;50.764;4.332;2022-09-09T00:39:53;14.90;99.90
25582;DHT22;13462;50.764;4.332;2022-09-09T00:42:42;15.00;99.90
25582;DHT22;13462;50.764;4.332;2022-09-09T00:48:01;15.10;99.90
25582;DHT22;13462;50.764;4.332;2022-09-09T00:57:55;15.10;99.90
25582;DHT22;13462;50.764;4.332;2022-09-09T01:00:30;15.00;99.90
25582;DHT22;13462;50.764;4.332;2022-09-09T01:03:25;15.00;99.90
25582;DHT22;13462;50.764;4.332;2022-09-09T01:09:12;14.90;99.90
25582;DHT22;13462;50.764;4.332;2022-09-09T01:14:42;14.80;99.90
25582;DHT22;13462;50.764;4.332;2022-09-09T01:26:09;14.90;99.90
25582;DHT22;13462;50.764;4.332;2022-09-09T01:31:37;14.90;99.90
25582;DHT22;13462;50.764;4.332;2022-09-09T01:34:11;14.90;99.90
25582;DHT22;13462;50.764;4.332;2022-09-09T01:37:07;15.00;99.90
25582;DHT22;13462;50.764;4.332;2022-09-09T01:39:36;15.00;99.90
25582;DHT22;13462;50.764;4.332;2022-09-09T01:42:04;15.00;99.90
25582;DHT22;13462;50.764;4.332;2022-09-09T01:47:41;15.00;99.90
25582;DHT22;13462;50.764;4.332;2022-09-09T01:50:10;15.00;99.90
25582;DHT22;13462;50.764;4.332;2022-09-09T01:52:38;15.00;99.90
25582;DHT22;13462;50.764;4.332;2022-09-09T01:55:14;15.00;99.90
25582;DHT22;13462;50.764;4.332;2022-09-09T01:57:50;15.00;99.90
25582;DHT22;13462;50.764;4.332;2022-09-09T02:00:19;15.00;99.90
25582;DHT22;13462;50.764;4.332;2022-09-09T02:03:05;15.00;99.90
25582;DHT22;13462;50.764;4.332;2022-09-09T02:06:33;15.00;99.90
25582;DHT22;13462;50.764;4.332;2022-09-09T02:08:40;15.10;99.90
25582;DHT22;13462;50.764;4.332;2022-09-09T02:13:40;15.10;99.90
25582;DHT22;13462;50.764;4.332;2022-09-09T02:19:18;15.00;99.90
25582;DHT22;13462;50.764;4.332;2022-09-09T02:21:46;15.00;99.90
25582;DHT22;13462;50.764;4.332;2022-09-09T02:24:14;15.00;99.90
25582;DHT22;13462;50.764;4.332;2022-09-09T02:26:42;15.00;99.90
25582;DHT22;13462;50.764;4.332;2022-09-09T02:29:15;15.00;99.90
25582;DHT22;13462;50.764;4.332;2022-09-09T02:31:44;14.90;99.90
25582;DHT22;13462;50.764;4.332;2022-09-09T02:34:12;14.90;99.90
25582;DHT22;13462;50.764;4.332;2022-09-09T02:36:59;15.00;99.90
25582;DHT22;13462;50.764;4.332;2022-09-09T02:39:26;15.00;99.90
25582;DHT22;13462;50.764;4.332;2022-09-09T02:41:52;15.10;99.90
25582;DHT22;13462;50.764;4.332;2022-09-09T02:44:19;15.00;99.90
25582;DHT22;13462;50.764;4.332;2022-09-09T02:49:55;14.90;99.90
25582;DHT22;13462;50.764;4.332;2022-09-09T02:55:00;14.90;99.90
25582;DHT22;13462;50.764;4.332;2022-09-09T02:57:30;14.90;99.90
25582;DHT22;13462;50.764;4.332;2022-09-09T02:59:58;15.00;99.90
25582;DHT22;13462;50.764;4.332;2022-09-09T03:02:24;14.90;99.90
25582;DHT22;13462;50.764;4.332;2022-09-09T03:04:50;14.90;99.90
25582;DHT22;13462;50.764;4.332;2022-09-09T03:07:20;14.90;99.90
25582;DHT22;13462;50.764;4.332;2022-09-09T03:09:56;14.90;99.90
25582;DHT22;13462;50.764;4.332;2022-09-09T03:12:22;14.90;99.90
25582;DHT22;13462;50.764;4.332;2022-09-09T03:14:50;14.90;99.90
25582;DHT22;13462;50.764;4.332;2022-09-09T03:17:22;14.90;99.90
25582;DHT22;13462;50.764;4.332;2022-09-09T03:19:48;14.90;99.90
25582;DHT22;13462;50.764;4.332;2022-09-09T03:22:25;14.90;99.90
25582;DHT22;13462;50.764;4.332;2022-09-09T03:24:51;15.00;99.90
25582;DHT22;13462;50.764;4.332;2022-09-09T03:27:20;14.90;99.90
25582;DHT22;13462;50.764;4.332;2022-09-09T03:29:46;14.90;99.90
25582;DHT22;13462;50.764;4.332;2022-09-09T03:32:12;14.90;99.90
25582;DHT22;13462;50.764;4.332;2022-09-09T03:34:38;15.00;99.90
25582;DHT22;13462;50.764;4.332;2022-09-09T03:37:06;15.00;99.90
25582;DHT22;13462;50.764;4.332;2022-09-09T03:39:32;14.90;99.90
25582;DHT22;13462;50.764;4.332;2022-09-09T03:42:03;15.00;99.90
25582;DHT22;13462;50.764;4.332;2022-09-09T03:44:30;14.90;99.90
25582;DHT22;13462;50.764;4.332;2022-09-09T03:46:56;14.90;99.90
25582;DHT22;13462;50.764;4.332;2022-09-09T03:49:21;14.80;99.90
25582;DHT22;13462;50.764;4.332;2022-09-09T03:51:50;14.80;99.90
25582;DHT22;13462;50.764;4.332;2022-09-09T03:54:15;14.90;99.90
25582;DHT22;13462;50.764;4.332;2022-09-09T03:56:41;15.00;99.90
25582;DHT22;13462;50.764;4.332;2022-09-09T03:59:07;15.00;99.90
25582;DHT22;13462;50.764;4.332;2022-09-09T04:01:34;15.00;99.90
25582;DHT22;13462;50.764;4.332;2022-09-09T04:04:00;15.10;99.90
25582;DHT22;13462;50.764;4.332;2022-09-09T04:06:28;15.10;99.90
25582;DHT22;13462;50.764;4.332;2022-09-09T04:08:55;15.00;99.90
25582;DHT22;13462;50.764;4.332;2022-09-09T04:11:21;15.10;99.90
25582;DHT22;13462;50.764;4.332;2022-09-09T04:13:47;15.10;99.90
25582;DHT22;13462;50.764;4.332;2022-09-09T04:16:14;15.10;99.90
25582;DHT22;13462;50.764;4.332;2022-09-09T04:18:40;15.10;99.90
25582;DHT22;13462;50.764;4.332;2022-09-09T04:21:06;15.10;99.90
25582;DHT22;13462;50.764;4.332;2022-09-09T04:23:35;15.10;99.90
25582;DHT22;13462;50.764;4.332;2022-09-09T04:26:02;15.10;99.90
25582;DHT22;13462;50.764;4.332;2022-09-09T04:28:34;15.10;99.90
25582;DHT22;13462;50.764;4.332;2022-09-09T04:31:05;14.90;99.90
25582;DHT22;13462;50.764;4.332;2022-09-09T04:33:31;14.90;99.90
25582;DHT22;13462;50.764;4.332;2022-09-09T04:35:57;14.90;99.90
25582;DHT22;13462;50.764;4.332;2022-09-09T04:38:23;14.90;99.90
25582;DHT22;13462;50.764;4.332;2022-09-09T04:40:50;14.90;99.90
25582;DHT22;13462;50.764;4.332;2022-09-09T04:43:17;15.00;99.90
25582;DHT22;13462;50.764;4.332;2022-09-09T04:45:47;14.90;99.90
25582;DHT22;13462;50.764;4.332;2022-09-09T04:48:13;15.00;99.90
25582;DHT22;13462;50.764;4.332;2022-09-09T04:50:40;14.90;99.90
25582;DHT22;13462;50.764;4.332;2022-09-09T04:53:06;14.90;99.90
25582;DHT22;13462;50.764;4.332;2022-09-09T04:55:33;15.00;99.90
25582;DHT22;13462;50.764;4.332;2022-09-09T04:58:08;15.00;99.90
25582;DHT22;13462;50.764;4.332;2022-09-09T05:00:37;14.90;99.90
25582;DHT22;13462;50.764;4.332;2022-09-09T05:03:06;15.00;99.90
25582;DHT22;13462;50.764;4.332;2022-09-09T05:05:34;15.00;99.90
25582;DHT22;13462;50.764;4.332;2022-09-09T05:08:07;15.00;99.90
25582;DHT22;13462;50.764;4.332;2022-09-09T05:10:37;15.00;99.90
25582;DHT22;13462;50.764;4.332;2022-09-09T05:13:03;15.00;99.90
25582;DHT22;13462;50.764;4.332;2022-09-09T05:15:30;15.10;99.90
25582;DHT22;13462;50.764;4.332;2022-09-09T05:18:00;15.10;99.90
25582;DHT22;13462;50.764;4.332;2022-09-09T05:20:26;15.20;99.90
25582;DHT22;13462;50.764;4.332;2022-09-09T05:22:56;15.20;99.90
25582;DHT22;13462;50.764;4.332;2022-09-09T05:25:24;15.20;99.90
25582;DHT22;13462;50.764;4.332;2022-09-09T05:27:51;15.10;99.90
25582;DHT22;13462;50.764;4.332;2022-09-09T05:30:40;15.10;99.90
25582;DHT22;13462;50.764;4.332;2022-09-09T05:33:05;15.10;99.90
25582;DHT22;13462;50.764;4.332;2022-09-09T05:35:32;15.20;99.90
25582;DHT22;13462;50.764;4.332;2022-09-09T05:38:01;15.20;99.90
25582;DHT22;13462;50.764;4.332;2022-09-09T05:40:27;15.20;99.90
25582;DHT22;13462;50.764;4.332;2022-09-09T05:42:59;15.10;99.90
25582;DHT22;13462;50.764;4.332;2022-09-09T05:45:25;15.30;99.90
25582;DHT22;13462;50.764;4.332;2022-09-09T05:47:52;15.30;99.90
25582;DHT22;13462;50.764;4.332;2022-09-09T05:50:20;15.20;99.90
25582;DHT22;13462;50.764;4.332;2022-09-09T05:52:46;15.20;99.90
25582;DHT22;13462;50.764;4.332;2022-09-09T05:55:13;15.20;99.90
25582;DHT22;13462;50.764;4.332;2022-09-09T05:57:39;15.30;99.90
25582;DHT22;13462;50.764;4.332;2022-09-09T06:00:05;15.50;99.90
25582;DHT22;13462;50.764;4.332;2022-09-09T06:02:34;15.60;99.90
25582;DHT22;13462;50.764;4.332;2022-09-09T06:05:02;15.60;99.90
25582;DHT22;13462;50.764;4.332;2022-09-09T06:07:28;15.50;99.90
25582;DHT22;13462;50.764;4.332;2022-09-09T06:09:54;15.50;99.90
25582;DHT22;13462;50.764;4.332;2022-09-09T06:12:21;15.50;99.90
25582;DHT22;13462;50.764;4.332;2022-09-09T06:14:47;15.60;99.90
25582;DHT22;13462;50.764;4.332;2022-09-09T06:17:13;15.70;99.90
25582;DHT22;13462;50.764;4.332;2022-09-09T06:19:38;15.80;99.90
25582;DHT22;13462;50.764;4.332;2022-09-09T06:22:04;15.70;99.90
25582;DHT22;13462;50.764;4.332;2022-09-09T06:24:30;15.70;99.90
25582;DHT22;13462;50.764;4.332;2022-09-09T06:26:58;15.80;99.90
25582;DHT22;13462;50.764;4.332;2022-09-09T06:29:46;15.90;99.90
25582;DHT22;13462;50.764;4.332;2022-09-09T06:32:19;15.90;99.90
25582;DHT22;13462;50.764;4.332;2022-09-09T06:34:45;16.00;99.90
25582;DHT22;13462;50.764;4.332;2022-09-09T06:37:11;15.90;99.90
25582;DHT22;13462;50.764;4.332;2022-09-09T06:39:36;15.90;99.90
25582;DHT22;13462;50.764;4.332;2022-09-09T06:42:02;16.00;99.90
25582;DHT22;13462;50.764;4.332;2022-09-09T06:44:29;16.00;99.90
25582;DHT22;13462;50.764;4.332;2022-09-09T06:46:57;15.90;99.90
25582;DHT22;13462;50.764;4.332;2022-09-09T06:49:23;16.00;99.90
25582;DHT22;13462;50.764;4.332;2022-09-09T06:51:49;16.00;99.90
25582;DHT22;13462;50.764;4.332;2022-09-09T06:54:15;16.00;99.90
25582;DHT22;13462;50.764;4.332;2022-09-09T06:56:42;16.10;99.90
25582;DHT22;13462;50.764;4.332;2022-09-09T06:59:09;16.30;99.90
25582;DHT22;13462;50.764;4.332;2022-09-09T07:01:39;16.40;99.90
25582;DHT22;13462;50.764;4.332;2022-09-09T07:04:12;16.50;99.90
25582;DHT22;13462;50.764;4.332;2022-09-09T07:06:42;16.40;99.90
25582;DHT22;13462;50.764;4.332;2022-09-09T07:09:14;16.40;99.90
25582;DHT22;13462;50.764;4.332;2022-09-09T07:11:43;16.20;99.90
25582;DHT22;13462;50.764;4.332;2022-09-09T07:14:09;16.10;99.90
25582;DHT22;13462;50.764;4.332;2022-09-09T07:16:38;16.20;99.90
25582;DHT22;13462;50.764;4.332;2022-09-09T07:19:04;16.20;99.90
25582;DHT22;13462;50.764;4.332;2022-09-09T07:21:31;16.10;99.90
25582;DHT22;13462;50.764;4.332;2022-09-09T07:23:57;16.10;99.90
25582;DHT22;13462;50.764;4.332;2022-09-09T07:26:25;16.00;99.90
25582;DHT22;13462;50.764;4.332;2022-09-09T07:28:51;15.90;99.90
25582;DHT22;13462;50.764;4.332;2022-09-09T07:31:25;16.00;99.90
25582;DHT22;13462;50.764;4.332;2022-09-09T07:33:54;16.10;99.90
25582;DHT22;13462;50.764;4.332;2022-09-09T07:36:25;15.90;99.90
25582;DHT22;13462;50.764;4.332;2022-09-09T07:38:54;15.70;99.90
25582;DHT22;13462;50.764;4.332;2022-09-09T07:41:26;15.50;99.90
25582;DHT22;13462;50.764;4.332;2022-09-09T07:43:52;15.40;99.90
25582;DHT22;13462;50.764;4.332;2022-09-09T07:46:23;15.40;99.90
25582;DHT22;13462;50.764;4.332;2022-09-09T07:48:51;15.30;99.90
25582;DHT22;13462;50.764;4.332;2022-09-09T07:51:32;15.40;99.90
25582;DHT22;13462;50.764;4.332;2022-09-09T07:54:00;15.50;99.90
25582;DHT22;13462;50.764;4.332;2022-09-09T07:56:28;15.50;99.90
25582;DHT22;13462;50.764;4.332;2022-09-09T07:58:58;15.60;99.90
25582;DHT22;13462;50.764;4.332;2022-09-09T08:01:26;15.90;99.90
25582;DHT22;13462;50.764;4.332;2022-09-09T08:03:56;16.00;99.90
25582;DHT22;13462;50.764;4.332;2022-09-09T08:06:29;16.30;99.90
25582;DHT22;13462;50.764;4.332;2022-09-09T08:09:16;16.70;99.90
25582;DHT22;13462;50.764;4.332;2022-09-09T08:11:43;17.00;99.90
25582;DHT22;13462;50.764;4.332;2022-09-09T08:14:10;17.50;99.90
25582;DHT22;13462;50.764;4.332;2022-09-09T08:16:42;17.70;99.90
25582;DHT22;13462;50.764;4.332;2022-09-09T08:19:09;17.60;99.90
25582;DHT22;13462;50.764;4.332;2022-09-09T08:21:36;17.40;99.90
25582;DHT22;13462;50.764;4.332;2022-09-09T08:24:04;17.40;99.90
25582;DHT22;13462;50.764;4.332;2022-09-09T08:26:38;17.40;99.90
25582;DHT22;13462;50.764;4.332;2022-09-09T08:29:05;17.30;99.90
25582;DHT22;13462;50.764;4.332;2022-09-09T08:31:46;17.10;99.90
25582;DHT22;13462;50.764;4.332;2022-09-09T08:34:13;16.90;99.90
25582;DHT22;13462;50.764;4.332;2022-09-09T08:36:41;16.70;99.90
25582;DHT22;13462;50.764;4.332;2022-09-09T08:39:09;16.60;99.90
25582;DHT22;13462;50.764;4.332;2022-09-09T08:44:54;16.50;99.90
25582;DHT22;13462;50.764;4.332;2022-09-09T08:50:39;16.40;99.90
25582;DHT22;13462;50.764;4.332;2022-09-09T08:53:15;16.30;99.90
25582;DHT22;13462;50.764;4.332;2022-09-09T08:55:50;16.40;99.90
25582;DHT22;13462;50.764;4.332;2022-09-09T08:58:34;16.40;99.90
25582;DHT22;13462;50.764;4.332;2022-09-09T09:09:22;16.30;99.90
25582;DHT22;13462;50.764;4.332;2022-09-09T09:11:54;16.30;99.90
25582;DHT22;13462;50.764;4.332;2022-09-09T09:14:25;16.20;99.90
25582;DHT22;13462;50.764;4.332;2022-09-09T09:17:02;16.10;99.90
25582;DHT22;13462;50.764;4.332;2022-09-09T09:19:33;16.10;99.90
25582;DHT22;13462;50.764;4.332;2022-09-09T09:22:16;16.10;99.90
25582;DHT22;13462;50.764;4.332;2022-09-09T09:24:52;16.10;99.90
25582;DHT22;13462;50.764;4.332;2022-09-09T09:27:43;16.10;99.90
25582;DHT22;13462;50.764;4.332;2022-09-09T09:30:22;16.20;99.90
25582;DHT22;13462;50.764;4.332;2022-09-09T09:35:29;16.20;99.90
25582;DHT22;13462;50.764;4.332;2022-09-09T09:37:54;16.20;99.90
25582;DHT22;13462;50.764;4.332;2022-09-09T09:40:21;16.20;99.90
25582;DHT22;13462;50.764;4.332;2022-09-09T09:42:59;16.30;99.90
25582;DHT22;13462;50.764;4.332;2022-09-09T09:45:35;16.30;99.90
25582;DHT22;13462;50.764;4.332;2022-09-09T09:48:15;16.10;99.90
25582;DHT22;13462;50.764;4.332;2022-09-09T09:51:01;16.00;99.90
25582;DHT22;13462;50.764;4.332;2022-09-09T09:53:37;16.00;99.90
25582;DHT22;13462;50.764;4.332;2022-09-09T09:56:11;16.00;99.90
25582;DHT22;13462;50.764;4.332;2022-09-09T10:01:41;16.20;99.90
25582;DHT22;13462;50.764;4.332;2022-09-09T10:04:19;16.20;99.90
25582;DHT22;13462;50.764;4.332;2022-09-09T10:06:51;16.20;99.90
25582;DHT22;13462;50.764;4.332;2022-09-09T10:09:23;16.20;99.90
25582;DHT22;13462;50.764;4.332;2022-09-09T10:14:30;16.10;99.90
25582;DHT22;13462;50.764;4.332;2022-09-09T10:19:55;16.30;99.90
25582;DHT22;13462;50.764;4.332;2022-09-09T10:22:28;16.40;99.90
25582;DHT22;13462;50.764;4.332;2022-09-09T10:25:16;16.30;99.90
25582;DHT22;13462;50.764;4.332;2022-09-09T10:36:56;16.90;99.90
25582;DHT22;13462;50.764;4.332;2022-09-09T10:39:39;16.90;99.90
25582;DHT22;13462;50.764;4.332;2022-09-09T10:42:36;17.00;99.90
25582;DHT22;13462;50.764;4.332;2022-09-09T10:47:55;17.40;99.90
25582;DHT22;13462;50.764;4.332;2022-09-09T10:50:50;17.50;99.90
25582;DHT22;13462;50.764;4.332;2022-09-09T10:53:38;17.40;99.90
25582;DHT22;13462;50.764;4.332;2022-09-09T10:56:13;17.40;99.90
25582;DHT22;13462;50.764;4.332;2022-09-09T10:58:47;17.50;99.90
25582;DHT22;13462;50.764;4.332;2022-09-09T11:01:23;17.50;99.90
25582;DHT22;13462;50.764;4.332;2022-09-09T11:03:55;17.40;99.90
25582;DHT22;13462;50.764;4.332;2022-09-09T11:06:28;17.30;99.90
25582;DHT22;13462;50.764;4.332;2022-09-09T11:08:57;17.40;99.90
25582;DHT22;13462;50.764;4.332;2022-09-09T11:11:38;17.30;99.90
25582;DHT22;13462;50.764;4.332;2022-09-09T11:14:18;17.30;99.90
25582;DHT22;13462;50.764;4.332;2022-09-09T11:16:50;17.40;99.90
25582;DHT22;13462;50.764;4.332;2022-09-09T11:19:28;17.60;99.90
25582;DHT22;13462;50.764;4.332;2022-09-09T11:21:57;17.60;99.90
25582;DHT22;13462;50.764;4.332;2022-09-09T11:24:38;17.60;99.90
25582;DHT22;13462;50.764;4.332;2022-09-09T11:27:18;17.70;99.90
25582;DHT22;13462;50.764;4.332;2022-09-09T11:38:08;17.60;99.90
25582;DHT22;13462;50.764;4.332;2022-09-09T11:40:46;17.70;99.90
25582;DHT22;13462;50.764;4.332;2022-09-09T11:43:30;17.90;99.90
25582;DHT22;13462;50.764;4.332;2022-09-09T11:45:59;17.80;99.90
25582;DHT22;13462;50.764;4.332;2022-09-09T11:48:36;17.90;99.90
25582;DHT22;13462;50.764;4.332;2022-09-09T11:51:10;18.00;99.90
25582;DHT22;13462;50.764;4.332;2022-09-09T11:53:58;17.90;99.90
25582;DHT22;13462;50.764;4.332;2022-09-09T11:56:32;17.70;99.90
25582;DHT22;13462;50.764;4.332;2022-09-09T11:59:06;17.60;99.90
25582;DHT22;13462;50.764;4.332;2022-09-09T12:01:45;17.70;99.90
25582;DHT22;13462;50.764;4.332;2022-09-09T12:06:56;17.70;99.90
25582;DHT22;13462;50.764;4.332;2022-09-09T12:09:33;17.70;99.90
25582;DHT22;13462;50.764;4.332;2022-09-09T12:12:35;17.70;99.90
25582;DHT22;13462;50.764;4.332;2022-09-09T12:17:45;18.00;99.90
25582;DHT22;13462;50.764;4.332;2022-09-09T12:25:20;17.80;99.90
25582;DHT22;13462;50.764;4.332;2022-09-09T12:28:24;18.10;99.90
25582;DHT22;13462;50.764;4.332;2022-09-09T12:31:04;18.20;99.90
25582;DHT22;13462;50.764;4.332;2022-09-09T12:33:35;18.10;99.90
25582;DHT22;13462;50.764;4.332;2022-09-09T12:36:03;18.10;99.90
25582;DHT22;13462;50.764;4.332;2022-09-09T12:38:34;18.30;99.90
25582;DHT22;13462;50.764;4.332;2022-09-09T12:41:01;18.50;99.90
25582;DHT22;13462;50.764;4.332;2022-09-09T12:43:28;18.50;99.90
25582;DHT22;13462;50.764;4.332;2022-09-09T12:46:00;18.80;99.90
25582;DHT22;13462;50.764;4.332;2022-09-09T12:48:36;19.00;99.90
25582;DHT22;13462;50.764;4.332;2022-09-09T12:51:04;19.00;99.90
25582;DHT22;13462;50.764;4.332;2022-09-09T12:53:34;18.70;99.90
25582;DHT22;13462;50.764;4.332;2022-09-09T12:56:04;18.50;99.90
25582;DHT22;13462;50.764;4.332;2022-09-09T12:58:33;18.40;99.90
25582;DHT22;13462;50.764;4.332;2022-09-09T13:01:01;18.30;99.90
25582;DHT22;13462;50.764;4.332;2022-09-09T13:03:28;18.40;99.90
25582;DHT22;13462;50.764;4.332;2022-09-09T13:05:58;18.50;99.90
25582;DHT22;13462;50.764;4.332;2022-09-09T13:08:25;19.00;99.90
25582;DHT22;13462;50.764;4.332;2022-09-09T13:10:57;19.60;99.90
25582;DHT22;13462;50.764;4.332;2022-09-09T13:13:28;20.00;99.90
25582;DHT22;13462;50.764;4.332;2022-09-09T13:15:59;19.90;99.90
25582;DHT22;13462;50.764;4.332;2022-09-09T13:18:34;19.70;99.90
25582;DHT22;13462;50.764;4.332;2022-09-09T13:21:01;19.80;99.90
25582;DHT22;13462;50.764;4.332;2022-09-09T13:23:31;20.00;99.90
25582;DHT22;13462;50.764;4.332;2022-09-09T13:26:02;20.00;99.90
25582;DHT22;13462;50.764;4.332;2022-09-09T13:28:32;20.30;99.90
25582;DHT22;13462;50.764;4.332;2022-09-09T13:31:00;20.50;99.90
25582;DHT22;13462;50.764;4.332;2022-09-09T13:33:36;20.80;99.90
25582;DHT22;13462;50.764;4.332;2022-09-09T13:36:12;21.40;99.90
25582;DHT22;13462;50.764;4.332;2022-09-09T13:41:22;21.20;99.90
25582;DHT22;13462;50.764;4.332;2022-09-09T13:43:49;21.00;99.90
25582;DHT22;13462;50.764;4.332;2022-09-09T13:46:24;21.00;99.90
25582;DHT22;13462;50.764;4.332;2022-09-09T13:48:57;21.10;99.90
25582;DHT22;13462;50.764;4.332;2022-09-09T13:51:33;20.80;99.90
25582;DHT22;13462;50.764;4.332;2022-09-09T13:54:06;20.70;99.90
25582;DHT22;13462;50.764;4.332;2022-09-09T13:56:33;20.70;99.90
25582;DHT22;13462;50.764;4.332;2022-09-09T13:58:59;20.80;99.90
25582;DHT22;13462;50.764;4.332;2022-09-09T14:01:26;21.00;99.90
25582;DHT22;13462;50.764;4.332;2022-09-09T14:03:53;21.40;99.90
25582;DHT22;13462;50.764;4.332;2022-09-09T14:06:19;21.50;99.90
25582;DHT22;13462;50.764;4.332;2022-09-09T14:08:47;21.40;99.90
25582;DHT22;13462;50.764;4.332;2022-09-09T14:11:14;21.40;99.90
25582;DHT22;13462;50.764;4.332;2022-09-09T14:13:40;21.30;99.90
25582;DHT22;13462;50.764;4.332;2022-09-09T14:16:06;21.00;99.90
25582;DHT22;13462;50.764;4.332;2022-09-09T14:18:32;20.60;99.90
25582;DHT22;13462;50.764;4.332;2022-09-09T14:21:00;20.30;99.90
25582;DHT22;13462;50.764;4.332;2022-09-09T14:23:28;20.30;99.90
25582;DHT22;13462;50.764;4.332;2022-09-09T14:25:55;20.30;99.90
25582;DHT22;13462;50.764;4.332;2022-09-09T14:28:21;20.10;99.90
25582;DHT22;13462;50.764;4.332;2022-09-09T14:30:46;20.00;99.90
25582;DHT22;13462;50.764;4.332;2022-09-09T14:33:15;20.00;99.90
25582;DHT22;13462;50.764;4.332;2022-09-09T14:35:41;20.00;99.90
25582;DHT22;13462;50.764;4.332;2022-09-09T14:38:08;20.00;99.90
25582;DHT22;13462;50.764;4.332;2022-09-09T14:40:35;19.80;99.90
25582;DHT22;13462;50.764;4.332;2022-09-09T14:43:01;19.70;99.90
25582;DHT22;13462;50.764;4.332;2022-09-09T14:45:27;19.70;99.90
25582;DHT22;13462;50.764;4.332;2022-09-09T14:47:54;19.80;99.90
25582;DHT22;13462;50.764;4.332;2022-09-09T14:50:20;20.00;99.90
25582;DHT22;13462;50.764;4.332;2022-09-09T14:52:46;20.40;99.90
25582;DHT22;13462;50.764;4.332;2022-09-09T14:55:12;20.50;99.90
25582;DHT22;13462;50.764;4.332;2022-09-09T14:57:38;20.20;99.90
25582;DHT22;13462;50.764;4.332;2022-09-09T15:00:05;20.00;99.90
25582;DHT22;13462;50.764;4.332;2022-09-09T15:02:31;19.80;99.90
25582;DHT22;13462;50.764;4.332;2022-09-09T15:04:57;19.70;99.90
25582;DHT22;13462;50.764;4.332;2022-09-09T15:07:23;19.70;99.90
25582;DHT22;13462;50.764;4.332;2022-09-09T15:09:49;19.70;99.90
25582;DHT22;13462;50.764;4.332;2022-09-09T15:12:15;19.80;99.90
25582;DHT22;13462;50.764;4.332;2022-09-09T15:14:41;19.90;99.90
25582;DHT22;13462;50.764;4.332;2022-09-09T15:17:06;19.90;99.90
25582;DHT22;13462;50.764;4.332;2022-09-09T15:19:32;19.80;99.90
25582;DHT22;13462;50.764;4.332;2022-09-09T15:21:58;19.80;99.90
25582;DHT22;13462;50.764;4.332;2022-09-09T15:24:25;19.70;99.90
25582;DHT22;13462;50.764;4.332;2022-09-09T15:26:52;19.50;99.90
25582;DHT22;13462;50.764;4.332;2022-09-09T15:29:19;19.50;99.90
25582;DHT22;13462;50.764;4.332;2022-09-09T15:31:44;19.50;99.90
25582;DHT22;13462;50.764;4.332;2022-09-09T15:34:10;19.40;99.90
25582;DHT22;13462;50.764;4.332;2022-09-09T15:36:38;19.40;99.90
25582;DHT22;13462;50.764;4.332;2022-09-09T15:39:07;19.10;99.90
25582;DHT22;13462;50.764;4.332;2022-09-09T15:41:33;19.10;99.90
25582;DHT22;13462;50.764;4.332;2022-09-09T15:43:59;19.10;99.90
25582;DHT22;13462;50.764;4.332;2022-09-09T15:46:31;19.20;99.90
25582;DHT22;13462;50.764;4.332;2022-09-09T15:49:08;19.30;99.90
25582;DHT22;13462;50.764;4.332;2022-09-09T15:51:42;19.30;99.90
25582;DHT22;13462;50.764;4.332;2022-09-09T15:54:09;19.40;99.90
25582;DHT22;13462;50.764;4.332;2022-09-09T15:56:34;19.70;99.90
25582;DHT22;13462;50.764;4.332;2022-09-09T15:59:01;19.80;99.90
25582;DHT22;13462;50.764;4.332;2022-09-09T16:01:29;20.10;99.90
25582;DHT22;13462;50.764;4.332;2022-09-09T16:03:56;20.30;99.90
25582;DHT22;13462;50.764;4.332;2022-09-09T16:06:24;20.40;99.90
25582;DHT22;13462;50.764;4.332;2022-09-09T16:08:52;20.10;99.90
25582;DHT22;13462;50.764;4.332;2022-09-09T16:11:23;19.90;99.90
25582;DHT22;13462;50.764;4.332;2022-09-09T16:13:50;19.80;99.90
25582;DHT22;13462;50.764;4.332;2022-09-09T16:16:18;19.70;99.90
25582;DHT22;13462;50.764;4.332;2022-09-09T16:18:49;19.70;99.90
25582;DHT22;13462;50.764;4.332;2022-09-09T16:21:39;19.80;99.90
25582;DHT22;13462;50.764;4.332;2022-09-09T16:24:06;19.90;99.90
25582;DHT22;13462;50.764;4.332;2022-09-09T16:26:35;19.80;99.90
25582;DHT22;13462;50.764;4.332;2022-09-09T16:29:01;19.60;99.90
25582;DHT22;13462;50.764;4.332;2022-09-09T16:31:29;19.50;99.90
25582;DHT22;13462;50.764;4.332;2022-09-09T16:33:55;19.00;99.90
25582;DHT22;13462;50.764;4.332;2022-09-09T16:36:23;18.60;99.90
25582;DHT22;13462;50.764;4.332;2022-09-09T16:38:53;18.60;99.90
25582;DHT22;13462;50.764;4.332;2022-09-09T16:41:20;18.40;99.90
25582;DHT22;13462;50.764;4.332;2022-09-09T16:43:46;18.40;99.90
25582;DHT22;13462;50.764;4.332;2022-09-09T16:46:19;18.40;99.90
25582;DHT22;13462;50.764;4.332;2022-09-09T16:48:46;18.20;99.90
25582;DHT22;13462;50.764;4.332;2022-09-09T16:51:17;18.20;99.90
25582;DHT22;13462;50.764;4.332;2022-09-09T16:53:44;18.30;99.90
25582;DHT22;13462;50.764;4.332;2022-09-09T16:56:14;18.40;99.90
25582;DHT22;13462;50.764;4.332;2022-09-09T16:58:41;18.30;99.90
25582;DHT22;13462;50.764;4.332;2022-09-09T17:01:08;18.60;99.90
25582;DHT22;13462;50.764;4.332;2022-09-09T17:03:34;18.80;99.90
25582;DHT22;13462;50.764;4.332;2022-09-09T17:06:00;18.70;99.90
25582;DHT22;13462;50.764;4.332;2022-09-09T17:08:29;18.60;99.90
25582;DHT22;13462;50.764;4.332;2022-09-09T17:10:55;18.50;99.90
25582;DHT22;13462;50.764;4.332;2022-09-09T17:13:23;18.40;99.90
25582;DHT22;13462;50.764;4.332;2022-09-09T17:15:49;18.40;99.90
25582;DHT22;13462;50.764;4.332;2022-09-09T17:18:14;18.30;99.90
25582;DHT22;13462;50.764;4.332;2022-09-09T17:20:41;18.10;99.90
25582;DHT22;13462;50.764;4.332;2022-09-09T17:23:08;18.10;99.90
25582;DHT22;13462;50.764;4.332;2022-09-09T17:25:35;18.10;99.90
25582;DHT22;13462;50.764;4.332;2022-09-09T17:28:01;17.90;99.90
25582;DHT22;13462;50.764;4.332;2022-09-09T17:30:33;17.80;99.90
25582;DHT22;13462;50.764;4.332;2022-09-09T17:32:59;17.80;99.90
25582;DHT22;13462;50.764;4.332;2022-09-09T17:35:25;17.80;99.90
25582;DHT22;13462;50.764;4.332;2022-09-09T17:37:53;17.70;99.90
25582;DHT22;13462;50.764;4.332;2022-09-09T17:40:20;17.60;99.90